This is the latest recevied weather packets stored in our database for station/object KD4PMP. If no packets are shown the sender has not sent any weather packets the latest 10 day(s).
| Time | Temp. | Humidity | Pressure | Rain* | Wind** | Luminosity | Snow |
|---|---|---|---|---|---|---|---|
| 1777651815 | 18.33° C | 59% | 1015.2 hPa | 0 mm | - | - | - |
| 1777651215 | 18.33° C | 55% | 1015.3 hPa | 0 mm | - | - | - |
| 1777650614 | 17.78° C | 56% | 1015.4 hPa | 0 mm | - | - | - |
| 1777650014 | 17.78° C | 57% | 1015.3 hPa | 0 mm | - | - | - |
| 1777649414 | 17.78° C | 57% | 1015.3 hPa | 0 mm | - | - | - |
| 1777648814 | 17.22° C | 57% | 1015.4 hPa | 0 mm | - | - | - |
| 1777648213 | 17.22° C | 55% | 1015.3 hPa | 0 mm | - | - | - |
| 1777647613 | 16.67° C | 56% | 1015.2 hPa | 0 mm | - | - | - |
| 1777647013 | 16.67° C | 56% | 1015.2 hPa | 0 mm | - | - | - |
| 1777646412 | 16.67° C | 58% | 1015.1 hPa | 0 mm | - | - | - |
| 1777645812 | 16.11° C | 61% | 1015.1 hPa | 0 mm | - | - | - |
| 1777645212 | 15.56° C | 65% | 1015 hPa | 0 mm | - | - | - |
| 1777644612 | 15° C | 68% | 1015.1 hPa | 0 mm | - | - | - |
| 1777644011 | 14.44° C | 70% | 1015.1 hPa | 0 mm | - | - | - |
| 1777643411 | 13.89° C | 71% | 1015.1 hPa | 0 mm | - | - | - |
| 1777642810 | 13.33° C | 71% | 1014.9 hPa | 0 mm | - | - | - |
| 1777642211 | 12.78° C | 78% | 1014.9 hPa | 0 mm | - | - | - |
| 1777641610 | 11.67° C | 82% | 1015 hPa | 0 mm | - | - | - |
| 1777641009 | 11.67° C | 83% | 1015.1 hPa | 0 mm | - | - | - |
| 1777640409 | 10.56° C | 85% | 1015 hPa | 0 mm | - | - | - |
| 1777639809 | 10° C | 90% | 1015.1 hPa | 0 mm | - | - | - |
| 1777639209 | 9.44° C | 92% | 1015.1 hPa | 0 mm | - | - | - |
| 1777638609 | 8.89° C | 94% | 1015.1 hPa | 0 mm | - | - | - |
| 1777638008 | 8.33° C | 94% | 1015 hPa | 0 mm | - | - | - |
| 1777637408 | 8.33° C | 95% | 1014.9 hPa | 0 mm | - | - | - |
* Rain latest hour (hover to see other rain measurements)
** Current wind speed in m/s (hover to see current wind gust speed)